Time;durP1;ratioP1;P1;durP2;ratioP2;P2;SDS_P1;SDS_P2;PMS_P1;PMS_P2;Temp;Humidity;BMP_temperature;BMP_pressure;BME280_temperature;BME280_humidity;BME280_pressure;Samples;Min_cycle;Max_cycle;Signal;HPM_P1;HPM_P2
2022/09/16 00:00:24;;;;;;;2.50;1.37;;;16.50;74.40;;;;;;5007189;28;20460;-49
2022/09/16 00:02:51;;;;;;;6.40;2.07;;;16.60;73.90;;;;;;4995280;28;20457;-49
2022/09/16 00:05:18;;;;;;;2.40;2.03;;;16.60;74.10;;;;;;5006273;28;20460;-49
2022/09/16 00:07:46;;;;;;;3.13;1.50;;;16.60;74.20;;;;;;5008160;28;20554;-49
2022/09/16 00:10:13;;;;;;;4.00;1.83;;;16.50;74.10;;;;;;5006771;28;20476;-49
2022/09/16 00:12:40;;;;;;;2.90;1.70;;;16.60;73.70;;;;;;5008265;28;20457;-48
2022/09/16 00:15:08;;;;;;;2.40;1.47;;;16.50;74.70;;;;;;5014982;28;20510;-49
2022/09/16 00:17:36;;;;;;;3.00;1.50;;;16.50;75.00;;;;;;4993026;28;21072;-49
2022/09/16 00:20:05;;;;;;;1.60;1.50;;;16.40;74.90;;;;;;5009277;28;20462;-49
2022/09/16 00:22:32;;;;;;;4.97;1.80;;;16.40;75.30;;;;;;5012738;28;20477;-49
2022/09/16 00:24:58;;;;;;;2.23;1.83;;;16.40;75.10;;;;;;4982949;28;20985;-48
2022/09/16 00:27:25;;;;;;;6.43;1.80;;;16.40;75.30;;;;;;4990094;28;20504;-48
2022/09/16 00:29:52;;;;;;;3.07;1.73;;;16.40;75.60;;;;;;4997119;28;20458;-48
2022/09/16 00:32:19;;;;;;;4.93;1.80;;;16.40;74.80;;;;;;5010328;28;20457;-48
2022/09/16 00:34:46;;;;;;;1.33;1.13;;;16.40;74.90;;;;;;4992810;28;20510;-49
2022/09/16 00:37:12;;;;;;;3.23;1.43;;;16.40;75.10;;;;;;5009285;28;20459;-48
2022/09/16 00:39:39;;;;;;;2.83;2.30;;;16.30;75.00;;;;;;5013677;28;20492;-49
2022/09/16 00:42:10;;;;;;;2.47;1.47;;;16.40;75.00;;;;;;5010610;28;20523;-48
2022/09/16 00:45:01;;;;;;;5.63;2.23;;;16.40;75.10;;;;;;5007630;28;20503;-49
2022/09/16 00:47:32;;;;;;;2.43;1.43;;;16.40;75.10;;;;;;5008549;28;21001;-48
2022/09/16 00:50:05;;;;;;;5.03;1.67;;;16.30;75.40;;;;;;5007626;28;20464;-48
2022/09/16 00:52:32;;;;;;;3.83;1.47;;;16.30;75.50;;;;;;5008223;28;20966;-48
2022/09/16 00:55:02;;;;;;;2.40;1.40;;;16.30;75.20;;;;;;5009886;28;20457;-48
2022/09/16 00:57:29;;;;;;;2.23;1.20;;;16.30;74.90;;;;;;5014427;28;20483;-48
2022/09/16 00:59:57;;;;;;;3.70;1.60;;;16.30;74.80;;;;;;5016091;28;21094;-48
2022/09/16 01:02:24;;;;;;;1.70;1.20;;;16.30;74.60;;;;;;4999708;28;20472;-48
2022/09/16 01:04:54;;;;;;;4.50;1.90;;;16.30;74.70;;;;;;5011882;28;20476;-49
2022/09/16 01:07:48;;;;;;;3.20;1.57;;;16.30;74.60;;;;;;5012204;28;20515;-48
2022/09/16 01:10:22;;;;;;;6.27;1.60;;;16.30;74.60;;;;;;5011602;28;20466;-49
2022/09/16 01:13:05;;;;;;;2.50;1.23;;;16.30;74.40;;;;;;5012142;28;20812;-48
2022/09/16 01:15:41;;;;;;;2.90;1.57;;;16.30;74.70;;;;;;4999607;28;20471;-48
2022/09/16 01:18:18;;;;;;;2.93;1.67;;;16.20;74.90;;;;;;5012504;28;20843;-48
2022/09/16 01:20:59;;;;;;;4.07;1.27;;;16.20;74.90;;;;;;5011760;28;20491;-48
2022/09/16 01:23:45;;;;;;;2.57;1.13;;;16.20;75.10;;;;;;5007677;28;20468;-48
2022/09/16 01:26:35;;;;;;;6.23;1.97;;;16.20;75.00;;;;;;4997465;28;20485;-48
2022/09/16 01:29:39;;;;;;;3.67;1.63;;;16.10;75.10;;;;;;4976166;28;20472;-48
2022/09/16 01:32:24;;;;;;;2.93;1.30;;;16.10;75.10;;;;;;4996717;28;20460;-48
2022/09/16 01:35:11;;;;;;;2.67;1.60;;;16.10;74.50;;;;;;5011427;28;20453;-48
2022/09/16 01:37:46;;;;;;;2.80;1.40;;;16.10;74.60;;;;;;4991655;28;21052;-48
2022/09/16 01:40:39;;;;;;;3.60;1.07;;;16.10;74.40;;;;;;5006918;28;20479;-48
2022/09/16 01:43:24;;;;;;;1.77;1.23;;;16.00;74.40;;;;;;4992639;28;20986;-48
2022/09/16 01:46:01;;;;;;;2.13;1.33;;;16.00;74.50;;;;;;4986172;28;20500;-48
2022/09/16 01:48:57;;;;;;;2.90;1.40;;;16.00;74.70;;;;;;4994702;28;20468;-48
2022/09/16 01:51:43;;;;;;;1.70;0.97;;;16.00;74.80;;;;;;5009779;28;20741;-48
2022/09/16 01:54:15;;;;;;;2.60;1.40;;;16.00;74.30;;;;;;5003426;28;20884;-48
2022/09/16 01:57:04;;;;;;;2.73;1.30;;;16.00;73.90;;;;;;5015248;28;20547;-48
2022/09/16 01:59:39;;;;;;;2.30;0.87;;;16.00;73.90;;;;;;5011715;28;20484;-48
2022/09/16 02:02:18;;;;;;;3.80;1.40;;;16.10;73.50;;;;;;5009474;28;20464;-48
2022/09/16 02:04:51;;;;;;;2.00;1.33;;;16.00;73.50;;;;;;5013690;28;20459;-48
2022/09/16 02:07:22;;;;;;;2.10;1.10;;;16.00;73.30;;;;;;5004037;28;20515;-50
2022/09/16 02:09:55;;;;;;;8.57;1.63;;;16.00;73.60;;;;;;4993967;28;20546;-50
2022/09/16 02:12:31;;;;;;;2.70;1.60;;;15.90;73.20;;;;;;4999031;28;20493;-50
2022/09/16 02:15:05;;;;;;;3.23;1.10;;;15.90;73.00;;;;;;4997366;28;20572;-50
2022/09/16 02:17:37;;;;;;;5.87;1.03;;;15.90;73.10;;;;;;4995978;28;20519;-50
2022/09/16 02:20:11;;;;;;;3.37;1.17;;;15.90;73.20;;;;;;4981690;28;20456;-50
2022/09/16 02:22:47;;;;;;;1.83;1.50;;;15.90;73.10;;;;;;4979747;28;20882;-50
2022/09/16 02:25:17;;;;;;;3.20;1.50;;;15.90;73.40;;;;;;4996234;28;20792;-50
2022/09/16 02:27:45;;;;;;;3.40;1.57;;;15.90;73.50;;;;;;4979392;28;20493;-50
2022/09/16 02:30:18;;;;;;;6.50;1.50;;;15.90;73.40;;;;;;4997142;28;20547;-50
2022/09/16 02:32:50;;;;;;;3.07;1.00;;;15.90;73.70;;;;;;4996656;28;20456;-50
2022/09/16 02:35:20;;;;;;;2.70;1.07;;;15.90;74.00;;;;;;4997378;28;20441;-50
2022/09/16 02:38:28;;;;;;;2.43;1.20;;;15.90;73.80;;;;;;5001241;28;21044;-50
2022/09/16 02:41:00;;;;;;;6.00;1.10;;;15.80;74.10;;;;;;4957199;28;20461;-50
2022/09/16 02:43:28;;;;;;;1.97;0.97;;;15.80;73.90;;;;;;4993858;28;20460;-50
2022/09/16 02:46:22;;;;;;;3.17;1.07;;;15.80;74.40;;;;;;4994449;28;20463;-50
2022/09/16 02:48:49;;;;;;;4.47;1.40;;;15.80;74.60;;;;;;4975510;28;20509;-48
2022/09/16 02:51:22;;;;;;;1.23;1.13;;;15.90;74.30;;;;;;4990271;28;20469;-47
2022/09/16 02:54:22;;;;;;;2.80;1.13;;;15.80;75.10;;;;;;4997654;28;20469;-47
2022/09/16 02:56:49;;;;;;;7.53;2.40;;;15.80;74.80;;;;;;5000446;28;20480;-47
2022/09/16 02:59:16;;;;;;;3.23;1.33;;;15.70;75.20;;;;;;4987317;28;21421;-48
2022/09/16 03:01:45;;;;;;;4.43;1.57;;;15.60;75.90;;;;;;4981918;28;20558;-48
2022/09/16 03:04:16;;;;;;;5.23;1.63;;;15.60;77.30;;;;;;4999205;28;20468;-48
2022/09/16 03:06:43;;;;;;;2.20;1.20;;;15.70;76.60;;;;;;5001322;28;20613;-48
2022/09/16 03:09:12;;;;;;;2.03;1.50;;;15.70;77.00;;;;;;4987445;28;20464;-48
2022/09/16 03:12:02;;;;;;;2.67;1.73;;;15.70;77.00;;;;;;4997525;28;21186;-48
2022/09/16 03:14:36;;;;;;;5.43;1.70;;;15.80;76.60;;;;;;4999429;28;20874;-48
2022/09/16 03:17:11;;;;;;;3.37;1.80;;;15.70;76.60;;;;;;5001721;28;20453;-48
2022/09/16 03:19:53;;;;;;;3.17;1.60;;;15.70;76.80;;;;;;4989119;28;20491;-48
2022/09/16 03:22:38;;;;;;;3.03;1.43;;;15.70;76.90;;;;;;4999285;28;20496;-47
2022/09/16 03:25:24;;;;;;;4.10;1.63;;;15.60;76.90;;;;;;4997629;28;21220;-47
2022/09/16 03:27:58;;;;;;;3.00;1.70;;;15.60;77.50;;;;;;4994353;28;20917;-47
2022/09/16 03:30:25;;;;;;;1.77;1.57;;;15.60;78.00;;;;;;5001393;28;20551;-48
2022/09/16 03:32:55;;;;;;;2.70;1.47;;;15.60;77.90;;;;;;4999855;28;20460;-48
2022/09/16 03:35:33;;;;;;;4.13;1.60;;;15.70;77.80;;;;;;4987677;28;21027;-47
2022/09/16 03:38:01;;;;;;;3.47;1.80;;;15.70;77.80;;;;;;4999833;28;20550;-47
2022/09/16 03:40:30;;;;;;;2.97;2.00;;;15.70;78.00;;;;;;4988975;28;20836;-47
2022/09/16 03:42:57;;;;;;;4.20;2.10;;;15.70;78.00;;;;;;4981260;28;21006;-48
2022/09/16 03:45:24;;;;;;;2.03;1.60;;;15.70;78.10;;;;;;4998448;28;20472;-47
2022/09/16 03:47:52;;;;;;;2.40;2.07;;;15.70;78.40;;;;;;4996315;28;20481;-48
2022/09/16 03:50:20;;;;;;;6.30;1.93;;;15.70;77.90;;;;;;4985413;28;20461;-48
2022/09/16 03:52:46;;;;;;;2.40;1.70;;;15.70;78.00;;;;;;4999754;28;20496;-47
2022/09/16 03:55:15;;;;;;;6.93;1.83;;;15.60;78.20;;;;;;4987619;28;20984;-47
2022/09/16 03:57:42;;;;;;;3.60;2.10;;;15.40;78.60;;;;;;4986185;28;21091;-47
2022/09/16 04:00:10;;;;;;;3.50;2.20;;;15.40;79.00;;;;;;4988633;28;21072;-47
2022/09/16 04:02:36;;;;;;;6.30;2.43;;;15.40;79.40;;;;;;4998598;28;20460;-47
2022/09/16 04:05:03;;;;;;;3.53;1.83;;;15.40;79.80;;;;;;4995141;28;20471;-47
2022/09/16 04:07:32;;;;;;;4.80;2.20;;;15.50;79.60;;;;;;4995982;28;21017;-48
2022/09/16 04:10:00;;;;;;;2.80;1.90;;;15.60;79.20;;;;;;4998977;28;20492;-47
2022/09/16 04:12:28;;;;;;;2.53;2.10;;;15.60;79.10;;;;;;4981667;28;20535;-48
2022/09/16 04:14:56;;;;;;;4.60;2.53;;;15.70;79.40;;;;;;4998747;28;20465;-48
2022/09/16 04:17:23;;;;;;;5.83;2.40;;;15.60;79.70;;;;;;4998296;28;20496;-47
2022/09/16 04:19:51;;;;;;;3.73;1.93;;;15.60;79.50;;;;;;4992267;28;20986;-47
2022/09/16 04:22:18;;;;;;;7.43;2.10;;;15.60;79.60;;;;;;4984213;28;20904;-48
2022/09/16 04:24:45;;;;;;;4.67;2.17;;;15.60;79.40;;;;;;4977511;28;21083;-47
2022/09/16 04:27:11;;;;;;;4.33;2.83;;;15.50;79.30;;;;;;4995236;28;20667;-47
2022/09/16 04:29:38;;;;;;;5.00;2.40;;;15.40;80.20;;;;;;4983965;28;20946;-50
2022/09/16 04:32:05;;;;;;;5.27;2.13;;;15.50;80.20;;;;;;4998636;28;20985;-50
2022/09/16 04:34:32;;;;;;;2.77;1.83;;;15.50;80.20;;;;;;4991584;28;20688;-50
2022/09/16 04:36:59;;;;;;;2.93;1.87;;;15.50;80.30;;;;;;4992769;28;20469;-50
2022/09/16 04:39:25;;;;;;;3.50;2.17;;;15.50;80.50;;;;;;5001367;28;21091;-50
2022/09/16 04:41:52;;;;;;;7.03;1.97;;;15.50;80.10;;;;;;5004733;28;20884;-48
2022/09/16 04:44:19;;;;;;;2.50;2.10;;;15.60;79.60;;;;;;4999177;28;20536;-48
2022/09/16 04:46:45;;;;;;;3.57;2.70;;;15.50;79.50;;;;;;4996004;28;20551;-48
2022/09/16 04:49:12;;;;;;;4.20;2.37;;;15.50;79.70;;;;;;4997569;28;20500;-48
2022/09/16 04:51:39;;;;;;;5.40;2.00;;;15.50;79.60;;;;;;4997481;28;20497;-48
2022/09/16 04:54:05;;;;;;;4.77;2.37;;;15.60;79.40;;;;;;4993121;28;20456;-48
2022/09/16 04:56:32;;;;;;;4.37;2.27;;;15.60;79.30;;;;;;4984114;28;21041;-48
2022/09/16 04:59:01;;;;;;;2.53;2.17;;;15.60;79.10;;;;;;4983721;28;21164;-48
2022/09/16 05:01:30;;;;;;;2.83;2.63;;;15.50;79.40;;;;;;4978206;28;20461;-48
2022/09/16 05:04:00;;;;;;;4.27;2.30;;;15.50;78.90;;;;;;4998034;28;20532;-49
2022/09/16 05:06:32;;;;;;;8.70;2.23;;;15.50;79.40;;;;;;4979871;28;20465;-49
2022/09/16 05:09:00;;;;;;;7.13;3.03;;;15.50;79.30;;;;;;4992916;28;20495;-48
2022/09/16 05:11:29;;;;;;;5.70;2.30;;;15.50;79.20;;;;;;4993010;28;20476;-48
2022/09/16 05:14:01;;;;;;;3.20;2.33;;;15.50;79.20;;;;;;4998017;28;20517;-48
2022/09/16 05:16:28;;;;;;;9.40;2.90;;;15.50;79.00;;;;;;4996551;28;20491;-49
2022/09/16 05:19:00;;;;;;;4.90;3.00;;;15.50;79.20;;;;;;4995878;28;20464;-49
2022/09/16 05:21:27;;;;;;;6.97;2.60;;;15.50;79.30;;;;;;4993292;28;20508;-48
2022/09/16 05:23:58;;;;;;;3.77;2.93;;;15.60;79.20;;;;;;4988270;28;20528;-48
2022/09/16 05:26:26;;;;;;;2.83;2.30;;;15.50;79.20;;;;;;4995498;28;20446;-48
2022/09/16 05:28:53;;;;;;;7.13;2.87;;;15.60;79.40;;;;;;4995792;28;20492;-48
2022/09/16 05:31:22;;;;;;;5.80;2.97;;;15.60;78.90;;;;;;4996449;28;20456;-48
2022/09/16 05:34:00;;;;;;;3.00;2.70;;;15.60;78.90;;;;;;4994654;28;20515;-49
2022/09/16 05:36:29;;;;;;;4.33;2.60;;;15.60;79.20;;;;;;4996888;28;20986;-48
2022/09/16 05:38:56;;;;;;;4.07;2.37;;;15.60;79.20;;;;;;4991079;28;21125;-49
2022/09/16 05:41:44;;;;;;;6.70;2.80;;;15.50;79.30;;;;;;4981452;28;21033;-50
2022/09/16 05:44:11;;;;;;;9.07;2.83;;;15.50;79.10;;;;;;4993796;28;20492;-50
2022/09/16 05:46:41;;;;;;;5.90;2.53;;;15.50;79.00;;;;;;4987728;28;20518;-50
2022/09/16 05:49:08;;;;;;;5.97;2.40;;;15.60;78.90;;;;;;4996035;28;20540;-50
2022/09/16 05:51:37;;;;;;;2.47;1.80;;;15.50;79.00;;;;;;4996631;28;20507;-50
2022/09/16 05:54:04;;;;;;;5.93;2.40;;;15.60;79.20;;;;;;4994734;28;21045;-50
2022/09/16 05:56:31;;;;;;;4.03;2.30;;;15.50;79.30;;;;;;4994581;28;20457;-50
2022/09/16 05:58:59;;;;;;;7.40;2.50;;;15.50;79.40;;;;;;4997491;28;20495;-50
2022/09/16 06:01:34;;;;;;;3.13;2.17;;;15.50;79.50;;;;;;4997642;28;21226;-50
2022/09/16 06:04:03;;;;;;;4.67;2.00;;;15.50;79.50;;;;;;4995828;28;21130;-50
2022/09/16 06:06:35;;;;;;;3.60;1.87;;;15.50;79.40;;;;;;4990774;28;20453;-50
2022/09/16 06:09:09;;;;;;;3.27;1.90;;;15.50;79.80;;;;;;4982434;28;20581;-50
2022/09/16 06:11:43;;;;;;;3.33;2.10;;;15.50;79.70;;;;;;4994931;28;20547;-50
2022/09/16 06:14:11;;;;;;;3.80;2.50;;;15.60;79.20;;;;;;4998373;28;20965;-50
2022/09/16 06:16:38;;;;;;;3.13;2.17;;;15.60;79.30;;;;;;4982368;28;20510;-50
2022/09/16 06:19:09;;;;;;;4.70;1.90;;;15.60;79.00;;;;;;5000758;28;20460;-50
2022/09/16 06:21:37;;;;;;;7.10;2.37;;;15.60;78.60;;;;;;4978249;28;20879;-50
2022/09/16 06:24:07;;;;;;;5.00;2.30;;;15.70;78.50;;;;;;4988584;28;21031;-50
2022/09/16 06:26:36;;;;;;;2.70;1.93;;;15.60;78.40;;;;;;5000130;28;20732;-50
2022/09/16 06:29:05;;;;;;;3.43;1.73;;;15.60;78.00;;;;;;5003176;28;21090;-50
2022/09/16 06:31:33;;;;;;;3.80;2.17;;;15.60;78.40;;;;;;5002524;28;20996;-50
2022/09/16 06:33:59;;;;;;;3.77;2.40;;;15.60;78.10;;;;;;5003716;28;20460;-50
2022/09/16 06:36:29;;;;;;;5.80;1.90;;;15.70;78.40;;;;;;4995354;28;20566;-50
2022/09/16 06:38:56;;;;;;;3.07;1.80;;;15.70;78.30;;;;;;4982350;28;20503;-50
2022/09/16 06:41:23;;;;;;;7.00;2.13;;;15.70;78.50;;;;;;4983312;28;20477;-50
2022/09/16 06:43:50;;;;;;;2.93;1.93;;;15.60;78.40;;;;;;4982549;28;20472;-50
2022/09/16 06:46:22;;;;;;;4.50;2.10;;;15.60;78.60;;;;;;4996185;28;20465;-50
2022/09/16 06:48:52;;;;;;;4.20;2.20;;;15.70;78.40;;;;;;5002603;28;20566;-50
2022/09/16 06:51:21;;;;;;;1.77;1.67;;;15.70;78.40;;;;;;4996247;28;20942;-50
2022/09/16 06:53:49;;;;;;;3.13;2.00;;;15.70;78.10;;;;;;4996629;28;20452;-49
2022/09/16 06:56:18;;;;;;;3.70;1.80;;;15.70;78.30;;;;;;5000398;28;20515;-50
2022/09/16 06:58:48;;;;;;;3.73;1.90;;;15.70;78.60;;;;;;4971483;28;22610;-50
2022/09/16 07:01:20;;;;;;;2.50;1.80;;;15.70;78.50;;;;;;4982437;28;20460;-50
2022/09/16 07:03:50;;;;;;;3.50;1.80;;;15.70;78.30;;;;;;4983929;28;20495;-50
2022/09/16 07:06:18;;;;;;;6.93;2.43;;;15.70;77.90;;;;;;4970827;28;20594;-50
2022/09/16 07:08:45;;;;;;;2.70;1.70;;;15.80;76.90;;;;;;4997041;28;20541;-50
2022/09/16 07:11:20;;;;;;;2.30;2.10;;;15.80;76.60;;;;;;4995535;28;20502;-50
2022/09/16 07:13:48;;;;;;;3.30;1.97;;;15.90;76.40;;;;;;4994752;28;20460;-50
2022/09/16 07:16:22;;;;;;;5.33;1.83;;;15.80;76.60;;;;;;4992067;28;20568;-50
2022/09/16 07:18:52;;;;;;;2.67;1.80;;;15.80;76.80;;;;;;4999310;28;20471;-50
2022/09/16 07:21:28;;;;;;;2.60;1.67;;;15.80;77.00;;;;;;4977470;28;21245;-50
2022/09/16 07:23:57;;;;;;;4.00;1.93;;;15.80;76.90;;;;;;4994250;28;20472;-50
2022/09/16 07:26:32;;;;;;;9.60;1.70;;;15.90;76.50;;;;;;4986775;28;20560;-50
2022/09/16 07:29:02;;;;;;;2.80;1.33;;;15.90;76.60;;;;;;4979949;28;20764;-50
2022/09/16 07:31:31;;;;;;;4.67;1.87;;;16.00;75.70;;;;;;4975611;28;20961;-50
2022/09/16 07:34:00;;;;;;;2.63;1.50;;;16.00;73.80;;;;;;4973963;28;20456;-50
2022/09/16 07:36:33;;;;;;;2.20;1.10;;;16.10;73.40;;;;;;4990421;28;20465;-50
2022/09/16 07:39:01;;;;;;;3.43;1.40;;;16.10;73.80;;;;;;4995325;28;20475;-50
2022/09/16 07:41:31;;;;;;;8.47;1.70;;;16.10;73.30;;;;;;4996888;28;20463;-50
2022/09/16 07:43:59;;;;;;;2.67;1.33;;;16.10;71.60;;;;;;4993952;28;21033;-50
2022/09/16 07:46:29;;;;;;;3.60;1.43;;;16.10;72.40;;;;;;4982120;28;20592;-50
2022/09/16 07:48:58;;;;;;;3.47;1.40;;;16.20;72.50;;;;;;4997088;28;21195;-50
2022/09/16 07:51:26;;;;;;;1.93;1.43;;;16.20;71.50;;;;;;4995660;28;20905;-50
2022/09/16 07:53:54;;;;;;;3.90;1.30;;;16.30;70.80;;;;;;4993211;28;20548;-50
2022/09/16 07:56:24;;;;;;;3.83;1.53;;;16.40;70.10;;;;;;4999905;28;20458;-50
2022/09/16 07:58:53;;;;;;;3.70;1.30;;;16.50;69.80;;;;;;4998745;28;20484;-50
2022/09/16 08:01:20;;;;;;;4.67;1.47;;;16.50;69.40;;;;;;4975829;28;21015;-50
2022/09/16 08:03:47;;;;;;;5.63;1.70;;;16.50;69.40;;;;;;4981575;28;20455;-50
2022/09/16 08:06:17;;;;;;;5.80;1.10;;;16.50;68.90;;;;;;4984448;28;20897;-50
2022/09/16 08:08:45;;;;;;;4.50;1.30;;;16.50;69.20;;;;;;4997007;28;20495;-50
2022/09/16 08:11:14;;;;;;;2.50;0.77;;;16.60;67.70;;;;;;4982500;28;20457;-50
2022/09/16 08:13:42;;;;;;;1.73;1.00;;;16.60;68.00;;;;;;4986986;28;20904;-50
2022/09/16 08:16:14;;;;;;;1.53;1.37;;;16.60;68.60;;;;;;4991658;28;21017;-50
2022/09/16 08:18:42;;;;;;;3.73;1.20;;;16.70;66.70;;;;;;4988547;28;20499;-50
2022/09/16 08:21:12;;;;;;;2.10;1.20;;;16.70;68.00;;;;;;4986205;28;20514;-48
2022/09/16 08:23:39;;;;;;;5.60;1.70;;;16.70;69.30;;;;;;4991619;28;20493;-49
2022/09/16 08:26:09;;;;;;;1.97;0.97;;;16.80;66.50;;;;;;4994748;28;20503;-49
2022/09/16 08:28:41;;;;;;;2.77;1.10;;;16.90;64.30;;;;;;5006444;28;20543;-49
2022/09/16 08:31:27;;;;;;;1.70;1.00;;;16.90;64.50;;;;;;4997416;28;20461;-49
2022/09/16 08:33:54;;;;;;;6.03;1.03;;;16.90;65.40;;;;;;4993358;28;20543;-48
2022/09/16 08:36:23;;;;;;;1.60;1.20;;;16.90;66.50;;;;;;4990423;28;20550;-49
2022/09/16 08:38:53;;;;;;;6.43;1.50;;;16.80;67.50;;;;;;4976614;28;20457;-49
2022/09/16 08:41:59;;;;;;;6.00;1.50;;;16.80;68.20;;;;;;4993558;28;20937;-49
2022/09/16 08:44:49;;;;;;;2.70;0.83;;;16.90;68.00;;;;;;4995636;28;20469;-49
2022/09/16 08:47:33;;;;;;;5.70;2.03;;;17.00;66.90;;;;;;4995562;28;20460;-48
2022/09/16 08:50:03;;;;;;;1.63;0.90;;;17.10;65.60;;;;;;4984598;28;20495;-48
2022/09/16 08:52:34;;;;;;;3.40;1.20;;;17.10;65.70;;;;;;4994542;28;20519;-49
2022/09/16 08:55:10;;;;;;;6.77;1.10;;;17.20;63.10;;;;;;5004684;28;20527;-48
2022/09/16 08:57:55;;;;;;;2.23;0.97;;;17.20;63.30;;;;;;5009740;28;20508;-48
2022/09/16 09:00:22;;;;;;;3.03;1.00;;;17.20;64.80;;;;;;5009190;28;20462;-49
2022/09/16 09:02:51;;;;;;;4.43;2.13;;;17.20;64.40;;;;;;5009705;28;20456;-48
2022/09/16 09:05:33;;;;;;;9.60;1.40;;;17.20;64.90;;;;;;5008800;28;20460;-49
2022/09/16 09:08:10;;;;;;;2.77;1.53;;;17.20;65.90;;;;;;4994576;28;20492;-48
2022/09/16 09:10:59;;;;;;;2.73;1.20;;;17.30;66.50;;;;;;4995506;28;20471;-49
2022/09/16 09:13:41;;;;;;;4.70;0.97;;;17.30;67.00;;;;;;5010102;28;20455;-48
2022/09/16 09:16:35;;;;;;;3.43;1.03;;;17.30;67.80;;;;;;5015048;28;20512;-49
2022/09/16 09:19:13;;;;;;;4.47;1.30;;;17.40;66.30;;;;;;4990010;28;21002;-48
2022/09/16 09:22:05;;;;;;;4.57;0.90;;;17.40;65.60;;;;;;5006434;28;20518;-48
2022/09/16 09:25:03;;;;;;;4.47;1.07;;;17.40;66.60;;;;;;5008211;28;20900;-49
2022/09/16 09:27:51;;;;;;;1.77;1.67;;;17.40;65.90;;;;;;4997320;28;20466;-48
2022/09/16 09:30:24;;;;;;;3.50;1.03;;;17.40;63.70;;;;;;5008212;28;20805;-48
2022/09/16 09:33:14;;;;;;;7.00;1.00;;;17.30;64.30;;;;;;5013432;28;20507;-48
2022/09/16 09:36:25;;;;;;;2.77;0.93;;;17.40;63.70;;;;;;4994523;28;20520;-49
2022/09/16 09:39:16;;;;;;;3.93;1.00;;;17.40;63.00;;;;;;5010481;28;20460;-48
2022/09/16 09:41:48;;;;;;;6.63;2.40;;;17.50;64.20;;;;;;4998402;28;20469;-49
2022/09/16 09:44:27;;;;;;;4.67;1.07;;;17.40;64.20;;;;;;5012782;28;20505;-49
2022/09/16 09:46:59;;;;;;;2.10;1.00;;;17.40;64.60;;;;;;5011287;28;20464;-49
2022/09/16 09:49:36;;;;;;;2.10;1.30;;;17.50;64.50;;;;;;5011268;28;20476;-48
2022/09/16 09:52:37;;;;;;;1.30;0.73;;;17.50;63.80;;;;;;5010165;28;20456;-48
2022/09/16 09:55:17;;;;;;;1.10;1.00;;;17.60;63.40;;;;;;4992851;28;20448;-49
2022/09/16 09:58:15;;;;;;;6.57;1.80;;;17.50;63.60;;;;;;5007508;28;20491;-48
2022/09/16 10:00:42;;;;;;;1.30;0.97;;;17.50;64.40;;;;;;5013724;28;26313;-49
2022/09/16 10:03:17;;;;;;;2.50;1.00;;;17.40;65.40;;;;;;5010255;28;21060;-48
2022/09/16 10:05:46;;;;;;;1.53;0.80;;;17.30;63.40;;;;;;5011691;28;21056;-49
2022/09/16 10:08:16;;;;;;;1.97;0.80;;;17.30;64.10;;;;;;5014026;28;20472;-49
2022/09/16 10:10:52;;;;;;;1.83;1.23;;;17.30;64.70;;;;;;5012048;28;20866;-48
2022/09/16 10:13:21;;;;;;;3.07;1.20;;;17.30;65.10;;;;;;5018065;28;20452;-48
2022/09/16 10:15:49;;;;;;;6.13;1.43;;;17.30;65.30;;;;;;5014410;28;20449;-48
2022/09/16 10:18:28;;;;;;;2.60;0.97;;;17.20;66.00;;;;;;4999338;28;20599;-49
2022/09/16 10:21:08;;;;;;;1.40;0.83;;;17.20;64.20;;;;;;5011786;28;20545;-48
2022/09/16 10:23:35;;;;;;;6.30;1.00;;;17.20;64.40;;;;;;4997100;28;20525;-48
2022/09/16 10:26:15;;;;;;;3.33;0.83;;;17.20;65.10;;;;;;4989927;28;21028;-48
2022/09/16 10:28:59;;;;;;;2.30;0.90;;;17.10;66.10;;;;;;4995670;28;20528;-48
2022/09/16 10:31:37;;;;;;;2.87;0.97;;;17.10;66.30;;;;;;5010256;28;20457;-48
2022/09/16 10:34:12;;;;;;;1.67;1.07;;;17.20;65.60;;;;;;4996219;28;21016;-48
2022/09/16 10:36:38;;;;;;;1.80;0.70;;;17.10;66.20;;;;;;4996945;28;20452;-49
2022/09/16 10:39:05;;;;;;;4.53;1.03;;;17.20;65.50;;;;;;5018525;28;20460;-49
2022/09/16 10:41:40;;;;;;;2.60;1.10;;;17.30;64.90;;;;;;5014741;28;20477;-48
2022/09/16 10:44:16;;;;;;;1.80;1.00;;;17.30;63.30;;;;;;5013725;28;20451;-49
2022/09/16 10:47:00;;;;;;;1.00;0.73;;;17.40;64.00;;;;;;4998683;28;20468;-48
2022/09/16 10:49:37;;;;;;;2.60;0.93;;;17.40;64.50;;;;;;5007387;28;20480;-48
2022/09/16 10:52:25;;;;;;;2.77;1.20;;;17.40;65.40;;;;;;5001925;28;20459;-49
2022/09/16 10:54:53;;;;;;;3.20;0.70;;;17.40;65.90;;;;;;5010281;28;20476;-48
2022/09/16 10:57:32;;;;;;;3.63;1.47;;;17.30;66.20;;;;;;5003051;28;20503;-49
2022/09/16 11:00:16;;;;;;;2.60;0.83;;;17.30;66.40;;;;;;5014166;28;20698;-48
2022/09/16 11:03:10;;;;;;;2.27;0.73;;;17.40;65.70;;;;;;5000742;28;20457;-48
2022/09/16 11:06:02;;;;;;;2.73;1.03;;;17.40;63.90;;;;;;5015152;28;20461;-48
2022/09/16 11:09:19;;;;;;;4.90;1.43;;;17.40;64.80;;;;;;4994373;28;20504;-48
2022/09/16 11:12:07;;;;;;;3.03;0.90;;;17.40;65.00;;;;;;4978390;28;20462;-48
2022/09/16 11:15:04;;;;;;;2.33;1.13;;;17.50;63.70;;;;;;4994752;28;20530;-49
2022/09/16 11:18:01;;;;;;;1.70;0.90;;;17.50;62.60;;;;;;5013504;28;20457;-49
2022/09/16 11:20:28;;;;;;;2.17;1.37;;;17.50;62.80;;;;;;5013939;28;20519;-48
2022/09/16 11:23:16;;;;;;;1.57;0.90;;;17.60;64.00;;;;;;5008965;28;20488;-48
2022/09/16 11:25:43;;;;;;;1.77;1.03;;;17.50;64.80;;;;;;4995982;28;20836;-48
2022/09/16 11:28:20;;;;;;;2.50;1.50;;;17.50;65.00;;;;;;5007626;28;20461;-48
2022/09/16 11:31:02;;;;;;;2.43;0.77;;;17.40;64.90;;;;;;5009034;28;20499;-48
2022/09/16 11:33:44;;;;;;;1.67;1.00;;;17.40;64.90;;;;;;4995946;28;20457;-48
2022/09/16 11:36:18;;;;;;;1.37;1.00;;;17.30;65.70;;;;;;4999270;28;20495;-48
2022/09/16 11:39:20;;;;;;;1.27;0.90;;;17.30;66.70;;;;;;4996913;28;20459;-48
2022/09/16 11:41:53;;;;;;;2.00;0.73;;;17.30;66.20;;;;;;4946305;28;20490;-48
2022/09/16 11:44:32;;;;;;;1.60;1.03;;;17.40;64.00;;;;;;4999011;28;20558;-48
2022/09/16 11:46:59;;;;;;;1.43;1.00;;;17.40;65.40;;;;;;4997435;28;20531;-48
2022/09/16 11:49:49;;;;;;;1.50;0.93;;;17.40;66.50;;;;;;4997110;28;20547;-48
2022/09/16 11:52:21;;;;;;;1.90;0.93;;;17.30;68.50;;;;;;4998182;28;20987;-48
2022/09/16 11:55:09;;;;;;;2.00;0.80;;;17.20;70.20;;;;;;4998554;28;20461;-47
2022/09/16 11:57:40;;;;;;;0.70;0.70;;;17.00;72.60;;;;;;5000041;28;21710;-47
2022/09/16 12:00:13;;;;;;;1.17;0.63;;;16.90;72.10;;;;;;4991321;28;20756;-47
2022/09/16 12:03:02;;;;;;;1.23;0.80;;;16.90;71.70;;;;;;4992844;28;20955;-47
2022/09/16 12:05:49;;;;;;;4.23;1.00;;;16.80;72.10;;;;;;4994254;28;20781;-47
2022/09/16 12:08:27;;;;;;;0.90;0.80;;;16.80;72.90;;;;;;4985912;28;20770;-48
2022/09/16 12:11:21;;;;;;;0.80;0.80;;;16.80;73.20;;;;;;4997768;28;20484;-48
2022/09/16 12:13:54;;;;;;;1.10;0.60;;;16.90;72.10;;;;;;4979738;28;20464;-47
2022/09/16 12:16:46;;;;;;;0.97;0.70;;;16.90;72.10;;;;;;4991031;28;20468;-48
2022/09/16 12:19:43;;;;;;;1.93;0.80;;;17.00;71.30;;;;;;4998274;28;21123;-48
2022/09/16 12:22:48;;;;;;;2.10;0.80;;;17.00;71.00;;;;;;4995484;28;20472;-48
2022/09/16 12:25:36;;;;;;;2.27;0.80;;;16.90;70.60;;;;;;4993144;28;20491;-48
2022/09/16 12:28:03;;;;;;;2.70;1.17;;;16.90;71.20;;;;;;4997734;28;21070;-49
2022/09/16 12:30:40;;;;;;;2.10;1.00;;;16.90;70.80;;;;;;4998754;28;20886;-48
2022/09/16 12:33:18;;;;;;;1.50;0.90;;;16.90;70.60;;;;;;4996826;28;20552;-47
2022/09/16 12:36:02;;;;;;;1.13;0.90;;;17.00;70.10;;;;;;4978234;28;20472;-48
2022/09/16 12:38:29;;;;;;;1.73;1.10;;;17.10;69.80;;;;;;4997448;28;20468;-48
2022/09/16 12:41:22;;;;;;;2.67;0.93;;;17.10;69.10;;;;;;4999148;28;21498;-48
2022/09/16 12:44:01;;;;;;;2.90;0.80;;;17.10;69.50;;;;;;4981864;28;20951;-48
2022/09/16 12:46:48;;;;;;;1.03;0.70;;;17.00;69.70;;;;;;5000171;28;20466;-48
2022/09/16 12:49:29;;;;;;;0.70;0.70;;;16.90;70.20;;;;;;4994483;28;20488;-48
2022/09/16 12:52:16;;;;;;;0.97;0.80;;;16.90;70.30;;;;;;4979314;28;20519;-47
2022/09/16 12:55:04;;;;;;;1.90;0.93;;;17.00;69.80;;;;;;4981981;28;20865;-48
2022/09/16 12:57:59;;;;;;;0.60;0.60;;;17.10;67.60;;;;;;4997865;28;20997;-48
2022/09/16 13:01:01;;;;;;;0.67;0.53;;;17.10;67.50;;;;;;4998524;28;20550;-48
2022/09/16 13:03:31;;;;;;;1.00;0.77;;;17.00;68.50;;;;;;4991432;28;20515;-48
2022/09/16 13:06:06;;;;;;;0.73;0.73;;;17.10;66.40;;;;;;4999085;28;20527;-48
2022/09/16 13:08:34;;;;;;;0.80;0.80;;;17.20;66.40;;;;;;4994923;28;20579;-48
2022/09/16 13:11:36;;;;;;;1.80;0.80;;;17.20;67.10;;;;;;4998678;28;20496;-48
2022/09/16 13:14:28;;;;;;;1.10;0.63;;;17.30;66.40;;;;;;4997514;28;20456;-48
2022/09/16 13:16:57;;;;;;;0.90;0.90;;;17.40;67.40;;;;;;4999437;28;20522;-48
2022/09/16 13:19:51;;;;;;;1.37;0.97;;;17.50;67.90;;;;;;4996144;28;20511;-48
2022/09/16 13:22:24;;;;;;;2.40;0.93;;;17.50;68.60;;;;;;4996369;28;20926;-48
2022/09/16 13:25:10;;;;;;;3.90;2.33;;;17.50;69.10;;;;;;4993762;28;20698;-48
2022/09/16 13:27:53;;;;;;;2.00;0.83;;;17.50;69.50;;;;;;4999366;28;20457;-48